Time;durP1;ratioP1;P1;durP2;ratioP2;P2;SDS_P1;SDS_P2;PMS_P1;PMS_P2;Temp;Humidity;BMP_temperature;BMP_pressure;BME280_temperature;BME280_humidity;BME280_pressure;Samples;Min_cycle;Max_cycle;Signal;HPM_P1;HPM_P2
2022/10/04 00:00:38;;;;;;;7.83;7.00;;;9.30;94.50;;;;;;5098799;28;20411;-45
2022/10/04 00:03:10;;;;;;;8.57;7.23;;;9.30;94.50;;;;;;5098635;28;20227;-44
2022/10/04 00:05:37;;;;;;;7.87;7.17;;;9.30;94.60;;;;;;5097691;28;20433;-44
2022/10/04 00:08:24;;;;;;;7.60;6.90;;;9.30;94.60;;;;;;5097256;28;20582;-46
2022/10/04 00:11:07;;;;;;;8.80;7.80;;;9.20;94.60;;;;;;5097652;28;20411;-45
2022/10/04 00:13:33;;;;;;;7.63;6.73;;;9.20;94.60;;;;;;5099241;28;20429;-43
2022/10/04 00:15:59;;;;;;;7.97;6.83;;;9.20;94.60;;;;;;5098448;28;20443;-44
2022/10/04 00:18:37;;;;;;;10.87;7.13;;;9.10;94.60;;;;;;5099120;28;20465;-44
2022/10/04 00:21:04;;;;;;;7.90;7.13;;;9.10;94.60;;;;;;5098789;28;20185;-45
2022/10/04 00:23:35;;;;;;;7.90;6.83;;;9.10;94.70;;;;;;5097798;28;20444;-45
2022/10/04 00:26:09;;;;;;;7.57;6.57;;;9.10;94.70;;;;;;5098217;28;20480;-43
2022/10/04 00:28:35;;;;;;;7.20;6.50;;;9.10;94.70;;;;;;5097833;28;20465;-44
2022/10/04 00:31:16;;;;;;;8.37;6.60;;;9.00;94.70;;;;;;5098064;28;20856;-44
2022/10/04 00:34:17;;;;;;;7.33;6.67;;;9.00;94.70;;;;;;5098452;28;20224;-46
2022/10/04 00:36:53;;;;;;;8.10;7.30;;;9.00;94.80;;;;;;5097192;28;20415;-45
2022/10/04 00:39:24;;;;;;;10.70;7.40;;;9.00;94.80;;;;;;5098524;28;20443;-44
2022/10/04 00:41:49;;;;;;;9.00;8.10;;;8.90;94.80;;;;;;5098600;28;20743;-43
2022/10/04 00:44:28;;;;;;;10.50;7.30;;;8.90;94.80;;;;;;5098186;28;20423;-43
2022/10/04 00:46:55;;;;;;;7.77;7.07;;;8.90;94.90;;;;;;5098614;28;20176;-45
2022/10/04 00:49:24;;;;;;;7.37;6.67;;;8.90;94.90;;;;;;5098355;28;20478;-46
2022/10/04 00:51:55;;;;;;;8.77;7.00;;;8.90;94.90;;;;;;5097724;28;20423;-45
2022/10/04 00:54:23;;;;;;;7.97;7.17;;;8.90;94.90;;;;;;5095872;28;20413;-44
2022/10/04 00:56:55;;;;;;;7.33;6.63;;;8.80;94.90;;;;;;5098182;28;20505;-46
2022/10/04 00:59:41;;;;;;;7.20;6.50;;;8.80;94.90;;;;;;5097294;28;20450;-44
2022/10/04 01:02:13;;;;;;;6.70;6.10;;;8.80;95.00;;;;;;5097505;28;20520;-46
2022/10/04 01:04:50;;;;;;;8.90;8.00;;;8.80;95.00;;;;;;5098134;28;20527;-45
2022/10/04 01:07:21;;;;;;;8.30;7.17;;;8.80;94.90;;;;;;5080228;28;20435;-46
2022/10/04 01:09:53;;;;;;;7.70;7.00;;;8.80;95.00;;;;;;5097626;28;20553;-45
2022/10/04 01:12:38;;;;;;;7.80;7.10;;;8.70;95.00;;;;;;5096332;28;20471;-43
2022/10/04 01:15:09;;;;;;;8.03;7.23;;;8.70;95.00;;;;;;5097828;28;20428;-45
2022/10/04 01:17:34;;;;;;;8.43;7.50;;;8.70;94.90;;;;;;5096693;28;20633;-45
2022/10/04 01:20:01;;;;;;;7.40;6.70;;;8.70;95.00;;;;;;5097039;28;20510;-45
2022/10/04 01:22:34;;;;;;;7.90;7.10;;;8.60;95.00;;;;;;5096944;28;20634;-45
2022/10/04 01:25:00;;;;;;;11.03;6.83;;;8.60;95.00;;;;;;5097933;28;20782;-46
2022/10/04 01:27:36;;;;;;;8.93;7.53;;;8.60;95.00;;;;;;5097762;28;20735;-45
2022/10/04 01:30:08;;;;;;;6.90;6.30;;;8.60;95.00;;;;;;5098202;28;20183;-45
2022/10/04 01:32:34;;;;;;;8.50;7.40;;;8.60;95.10;;;;;;5096307;28;20708;-45
2022/10/04 01:35:00;;;;;;;8.53;7.67;;;8.50;95.00;;;;;;5096912;28;20438;-46
2022/10/04 01:37:25;;;;;;;7.37;6.57;;;8.50;95.00;;;;;;5096671;28;20513;-44
2022/10/04 01:39:51;;;;;;;8.93;7.33;;;8.50;95.00;;;;;;5097401;28;20216;-45
2022/10/04 01:42:29;;;;;;;7.43;6.73;;;8.50;95.10;;;;;;5096959;28;20560;-45
2022/10/04 01:45:06;;;;;;;8.70;6.70;;;8.50;95.00;;;;;;5096866;28;20271;-45
2022/10/04 01:47:43;;;;;;;7.47;6.87;;;8.40;95.00;;;;;;5096870;28;20423;-45
2022/10/04 01:50:46;;;;;;;12.73;7.03;;;8.40;95.00;;;;;;5096967;28;20419;-45
2022/10/04 01:53:33;;;;;;;7.97;7.17;;;8.40;95.20;;;;;;5092074;28;20437;-45
2022/10/04 01:56:05;;;;;;;7.47;6.67;;;8.40;95.20;;;;;;5096806;28;20553;-44
2022/10/04 01:58:52;;;;;;;7.90;6.87;;;8.40;94.90;;;;;;5096508;28;20885;-45
2022/10/04 02:01:27;;;;;;;8.40;6.33;;;8.30;94.90;;;;;;5096083;28;20460;-44
2022/10/04 02:04:18;;;;;;;8.40;6.97;;;8.30;95.00;;;;;;5096829;28;20412;-45
2022/10/04 02:06:46;;;;;;;7.47;6.77;;;8.30;95.00;;;;;;5096684;28;20823;-45
2022/10/04 02:09:16;;;;;;;7.60;6.90;;;8.20;95.00;;;;;;5097216;28;20430;-44
2022/10/04 02:11:43;;;;;;;7.47;6.67;;;8.20;95.00;;;;;;5095443;28;20427;-45
2022/10/04 02:14:18;;;;;;;7.50;6.70;;;8.20;95.10;;;;;;5096545;28;20464;-44
2022/10/04 02:16:45;;;;;;;8.10;6.80;;;8.20;95.10;;;;;;5096724;28;20435;-44
2022/10/04 02:19:11;;;;;;;7.07;6.37;;;8.20;95.20;;;;;;5095260;28;20463;-46
2022/10/04 02:21:37;;;;;;;8.70;7.90;;;8.20;95.10;;;;;;5096246;28;20479;-47
2022/10/04 02:24:04;;;;;;;6.60;5.90;;;8.20;95.20;;;;;;5096990;28;20462;-44
2022/10/04 02:26:29;;;;;;;6.77;6.13;;;8.20;95.20;;;;;;5096292;28;20422;-44
2022/10/04 02:28:55;;;;;;;7.20;6.50;;;8.10;95.10;;;;;;5095906;28;20423;-45
2022/10/04 02:34:05;;;;;;;7.20;6.50;;;8.10;95.10;;;;;;5096926;28;20522;-44
2022/10/04 02:36:32;;;;;;;5.90;5.30;;;8.10;95.10;;;;;;5097103;28;20450;-43
2022/10/04 02:39:06;;;;;;;6.97;6.13;;;8.10;95.10;;;;;;5095354;28;20222;-46
2022/10/04 02:41:36;;;;;;;8.93;6.67;;;8.00;95.10;;;;;;5097433;28;20415;-44
2022/10/04 02:44:10;;;;;;;6.27;5.60;;;8.00;95.10;;;;;;5097139;28;20415;-45
2022/10/04 02:46:52;;;;;;;6.67;5.90;;;8.00;95.10;;;;;;5100678;28;20427;-46
2022/10/04 02:49:21;;;;;;;6.87;5.90;;;8.00;95.10;;;;;;5099704;28;20425;-46
2022/10/04 02:51:53;;;;;;;6.17;5.57;;;8.00;95.10;;;;;;5100376;28;20419;-47
2022/10/04 02:54:28;;;;;;;6.80;5.23;;;8.00;95.20;;;;;;5099397;28;20427;-43
2022/10/04 02:56:57;;;;;;;7.47;6.67;;;8.00;95.20;;;;;;5099757;28;20480;-46
2022/10/04 02:59:23;;;;;;;6.80;5.87;;;7.90;95.20;;;;;;5097614;28;20924;-43
2022/10/04 03:01:54;;;;;;;6.17;5.57;;;7.90;95.20;;;;;;5097183;28;20497;-46
2022/10/04 03:04:26;;;;;;;6.83;6.00;;;7.90;95.30;;;;;;5098416;28;20420;-43
2022/10/04 03:06:52;;;;;;;5.97;5.37;;;7.90;95.30;;;;;;5098191;28;20431;-43
2022/10/04 03:09:20;;;;;;;6.40;5.20;;;7.90;95.40;;;;;;5098452;28;20415;-43
2022/10/04 03:11:46;;;;;;;6.47;5.87;;;7.90;95.40;;;;;;5096897;28;20187;-44
2022/10/04 03:14:20;;;;;;;6.00;5.50;;;7.90;95.50;;;;;;5098363;28;20905;-46
2022/10/04 03:16:49;;;;;;;5.83;5.27;;;7.90;95.50;;;;;;5097248;28;20428;-44
2022/10/04 03:19:16;;;;;;;6.70;6.10;;;7.90;95.50;;;;;;5097501;28;20630;-45
2022/10/04 03:21:43;;;;;;;6.40;5.53;;;7.90;95.60;;;;;;5096055;28;20412;-45
2022/10/04 03:24:18;;;;;;;9.37;5.93;;;7.90;95.60;;;;;;5095723;28;20712;-45
2022/10/04 03:26:47;;;;;;;6.90;6.20;;;7.90;95.60;;;;;;5097889;28;20413;-44
2022/10/04 03:29:14;;;;;;;6.17;5.60;;;7.90;95.60;;;;;;5097783;28;20433;-44
2022/10/04 03:31:42;;;;;;;4.80;4.40;;;7.90;95.70;;;;;;5099344;28;20415;-48
2022/10/04 03:34:23;;;;;;;5.73;5.23;;;7.90;95.70;;;;;;5098969;28;20496;-45
2022/10/04 03:36:52;;;;;;;6.47;5.80;;;7.90;95.70;;;;;;5098024;28;20426;-44
2022/10/04 03:39:26;;;;;;;6.27;5.67;;;7.90;95.70;;;;;;5097535;28;20563;-52
2022/10/04 03:41:52;;;;;;;5.13;4.70;;;7.90;95.70;;;;;;5100082;28;20420;-44
2022/10/04 03:44:18;;;;;;;6.00;5.10;;;7.90;95.80;;;;;;5097947;28;20431;-45
2022/10/04 03:46:44;;;;;;;7.57;5.83;;;7.90;95.80;;;;;;5095677;28;20829;-47
2022/10/04 03:49:18;;;;;;;6.33;5.63;;;7.90;95.70;;;;;;5098037;28;20768;-46
2022/10/04 03:51:48;;;;;;;6.60;5.90;;;7.90;95.70;;;;;;5079277;28;20424;-43
2022/10/04 03:54:17;;;;;;;8.40;5.30;;;7.80;95.70;;;;;;5096832;28;20465;-44
2022/10/04 03:56:43;;;;;;;8.40;7.60;;;7.90;95.70;;;;;;5095176;28;20554;-43
2022/10/04 03:59:15;;;;;;;10.80;8.53;;;7.80;95.70;;;;;;5095659;28;20544;-45
2022/10/04 04:01:40;;;;;;;11.13;9.23;;;7.80;95.70;;;;;;5096398;28;20515;-46
2022/10/04 04:04:15;;;;;;;12.83;11.30;;;7.80;95.70;;;;;;5096979;28;20830;-43
2022/10/04 04:07:03;;;;;;;13.50;11.40;;;7.80;95.80;;;;;;5097626;28;20241;-44
2022/10/04 04:09:44;;;;;;;13.10;10.57;;;7.80;95.70;;;;;;5089544;28;20448;-48
2022/10/04 04:12:32;;;;;;;15.53;11.37;;;7.80;95.80;;;;;;5095922;28;20430;-44
2022/10/04 04:15:00;;;;;;;15.00;11.77;;;7.80;95.70;;;;;;5094973;28;20678;-43
2022/10/04 04:17:26;;;;;;;13.97;10.90;;;7.70;95.70;;;;;;5094159;28;20419;-45
2022/10/04 04:19:58;;;;;;;14.97;11.10;;;7.70;95.80;;;;;;5096174;28;20782;-47
2022/10/04 04:22:23;;;;;;;13.50;9.50;;;7.80;95.80;;;;;;5093842;28;20412;-44
2022/10/04 04:24:49;;;;;;;11.73;9.03;;;7.80;95.80;;;;;;5094152;28;20435;-43
2022/10/04 04:27:16;;;;;;;11.07;8.40;;;7.70;95.80;;;;;;5095697;28;20181;-45
2022/10/04 04:29:49;;;;;;;14.37;8.33;;;7.70;95.90;;;;;;5094919;28;20195;-44
2022/10/04 04:32:23;;;;;;;12.47;8.27;;;7.70;95.90;;;;;;5093386;28;20852;-44
2022/10/04 04:34:59;;;;;;;8.87;7.47;;;7.70;95.90;;;;;;5095455;28;20415;-46
2022/10/04 04:37:25;;;;;;;8.37;7.47;;;7.70;95.90;;;;;;5093863;28;20418;-44
2022/10/04 04:39:55;;;;;;;7.87;6.20;;;7.70;96.00;;;;;;5089567;28;20462;-45
2022/10/04 04:42:28;;;;;;;7.20;6.50;;;7.70;96.00;;;;;;5091821;28;20407;-44
2022/10/04 04:45:00;;;;;;;7.70;6.90;;;7.70;96.00;;;;;;5092635;28;20411;-45
2022/10/04 04:47:27;;;;;;;8.20;6.47;;;7.70;96.00;;;;;;5092321;28;20458;-45
2022/10/04 04:49:55;;;;;;;9.43;6.53;;;7.70;96.00;;;;;;5088884;28;20427;-45
2022/10/04 04:52:24;;;;;;;7.70;6.97;;;7.70;96.00;;;;;;5091638;28;20753;-46
2022/10/04 04:54:51;;;;;;;8.67;7.30;;;7.60;95.90;;;;;;5091949;28;20442;-44
2022/10/04 04:57:17;;;;;;;7.00;6.30;;;7.60;95.90;;;;;;5094751;28;20506;-45
2022/10/04 04:59:46;;;;;;;9.00;6.67;;;7.70;96.00;;;;;;5091746;28;20916;-46
2022/10/04 05:02:51;;;;;;;7.20;6.23;;;7.60;95.90;;;;;;5090526;28;20189;-43
2022/10/04 05:05:19;;;;;;;7.43;6.60;;;7.60;96.00;;;;;;5067593;28;20747;-47
2022/10/04 05:07:46;;;;;;;7.00;6.40;;;7.60;96.00;;;;;;5087707;28;20518;-48
2022/10/04 05:10:30;;;;;;;6.37;5.73;;;7.60;95.90;;;;;;5092089;28;20434;-44
2022/10/04 05:13:00;;;;;;;7.80;5.67;;;7.50;95.80;;;;;;5091971;28;20850;-44
2022/10/04 05:15:30;;;;;;;5.77;5.10;;;7.40;95.90;;;;;;5091958;28;20971;-45
2022/10/04 05:17:55;;;;;;;5.80;5.30;;;7.30;96.00;;;;;;5088871;28;20422;-46
2022/10/04 05:20:21;;;;;;;8.97;6.27;;;7.30;96.10;;;;;;5086799;28;20437;-43
2022/10/04 05:22:48;;;;;;;5.40;4.90;;;7.20;96.20;;;;;;5086974;28;20377;-43
2022/10/04 05:25:30;;;;;;;7.60;5.97;;;7.20;96.40;;;;;;5085536;28;20272;-46
2022/10/04 05:27:56;;;;;;;7.17;5.50;;;7.20;96.60;;;;;;5087982;28;20844;-46
2022/10/04 05:30:50;;;;;;;7.83;5.90;;;7.20;96.70;;;;;;5087071;28;20411;-48
2022/10/04 05:33:46;;;;;;;6.50;5.50;;;7.20;96.80;;;;;;5086886;28;20226;-45
2022/10/04 05:36:24;;;;;;;7.17;5.13;;;7.10;96.90;;;;;;5082256;28;20444;-45
2022/10/04 05:39:02;;;;;;;6.70;6.00;;;7.10;97.00;;;;;;5087716;28;20470;-45
2022/10/04 05:41:31;;;;;;;6.17;5.27;;;7.10;97.10;;;;;;5087424;28;20428;-45
2022/10/04 05:43:57;;;;;;;6.40;5.80;;;7.20;97.20;;;;;;5085976;28;20415;-48
2022/10/04 05:46:24;;;;;;;8.17;6.70;;;7.20;97.20;;;;;;5086383;28;20425;-46
2022/10/04 05:49:11;;;;;;;7.33;6.63;;;7.20;97.30;;;;;;5091446;28;20522;-45
2022/10/04 05:51:52;;;;;;;7.33;5.63;;;7.20;97.30;;;;;;5091448;28;20430;-48
2022/10/04 05:54:23;;;;;;;7.07;6.03;;;7.30;97.40;;;;;;5091352;28;20450;-45
2022/10/04 05:57:07;;;;;;;6.73;5.93;;;7.40;97.50;;;;;;5091217;28;20570;-44
2022/10/04 06:00:08;;;;;;;6.97;6.20;;;7.40;97.40;;;;;;5088177;28;20926;-44
2022/10/04 06:03:18;;;;;;;6.17;5.67;;;7.50;97.40;;;;;;5089488;28;20430;-48
2022/10/04 06:05:53;;;;;;;8.33;6.10;;;7.60;97.40;;;;;;5090611;28;20893;-45
2022/10/04 06:08:51;;;;;;;7.90;6.70;;;7.70;97.40;;;;;;5088704;28;20513;-46
2022/10/04 06:11:49;;;;;;;7.13;6.23;;;7.80;97.40;;;;;;5089959;28;20422;-45
2022/10/04 06:14:38;;;;;;;6.70;6.00;;;7.90;97.30;;;;;;5089097;28;20740;-46
2022/10/04 06:17:23;;;;;;;8.10;6.10;;;8.10;97.20;;;;;;5088796;28;20450;-46
2022/10/04 06:19:52;;;;;;;7.40;6.33;;;8.20;97.10;;;;;;5092845;28;20462;-44
2022/10/04 06:22:21;;;;;;;7.90;5.83;;;8.30;97.00;;;;;;5096429;28;20439;-44
2022/10/04 06:24:55;;;;;;;6.70;6.00;;;8.40;96.90;;;;;;5094645;28;20407;-44
2022/10/04 06:27:30;;;;;;;7.43;6.83;;;8.50;96.80;;;;;;5093107;28;20425;-46
2022/10/04 06:30:04;;;;;;;6.63;6.00;;;8.60;96.80;;;;;;5091920;28;20691;-43
2022/10/04 06:32:35;;;;;;;6.13;5.53;;;8.70;96.70;;;;;;5095119;28;20415;-45
2022/10/04 06:35:01;;;;;;;6.67;5.93;;;8.80;96.70;;;;;;5096112;28;20763;-45
2022/10/04 06:37:41;;;;;;;7.07;6.37;;;9.00;96.70;;;;;;5095756;28;20478;-46
2022/10/04 06:40:16;;;;;;;7.20;5.87;;;9.10;96.60;;;;;;5091836;28;20216;-43
2022/10/04 06:43:20;;;;;;;6.80;5.90;;;9.30;96.60;;;;;;5094926;28;20457;-43
2022/10/04 06:46:11;;;;;;;7.37;6.00;;;9.50;96.50;;;;;;5094271;28;20515;-44
2022/10/04 06:48:44;;;;;;;7.10;6.40;;;9.80;96.50;;;;;;5092781;28;20855;-45
2022/10/04 06:51:31;;;;;;;7.70;6.50;;;10.00;95.90;;;;;;5093694;28;20860;-44
2022/10/04 06:54:13;;;;;;;8.13;6.23;;;10.20;95.90;;;;;;5087182;28;20736;-43
2022/10/04 06:57:03;;;;;;;8.20;6.50;;;10.40;95.80;;;;;;5076545;28;20486;-45
2022/10/04 06:59:38;;;;;;;6.70;6.10;;;10.50;95.70;;;;;;5079136;28;20484;-43
2022/10/04 07:02:21;;;;;;;5.80;5.30;;;10.70;95.80;;;;;;5077294;28;20514;-47
2022/10/04 07:04:53;;;;;;;6.93;6.07;;;10.90;95.80;;;;;;5075611;28;20582;-46
2022/10/04 07:07:34;;;;;;;8.03;6.37;;;11.10;95.70;;;;;;5073296;28;20456;-43
2022/10/04 07:10:24;;;;;;;7.90;7.20;;;11.20;95.70;;;;;;5093909;28;20944;-44
2022/10/04 07:13:26;;;;;;;6.80;6.10;;;11.30;95.70;;;;;;5096078;28;20403;-46
2022/10/04 07:16:30;;;;;;;9.10;6.47;;;11.50;95.80;;;;;;5092334;28;20412;-46
2022/10/04 07:18:58;;;;;;;6.43;5.83;;;11.60;95.90;;;;;;5092485;28;20478;-47
2022/10/04 07:21:27;;;;;;;3.03;2.50;;;11.70;96.00;;;;;;5091854;28;20423;-45
2022/10/04 07:23:56;;;;;;;5.30;3.33;;;12.40;99.90;;;;;;5089438;28;20419;-46
2022/10/04 07:26:37;;;;;;;8.00;4.03;;;12.90;99.90;;;;;;5089435;28;20422;-46
2022/10/04 07:29:19;;;;;;;4.30;3.70;;;13.50;99.90;;;;;;5090438;28;20416;-46
2022/10/04 07:32:10;;;;;;;4.53;4.10;;;14.00;99.90;;;;;;5088875;28;20425;-43
2022/10/04 07:34:45;;;;;;;6.33;5.07;;;14.30;99.90;;;;;;5089018;28;20428;-44
2022/10/04 07:37:12;;;;;;;6.40;5.00;;;14.30;99.70;;;;;;5091651;28;20947;-45
2022/10/04 07:39:49;;;;;;;6.27;5.03;;;14.20;98.50;;;;;;5091789;28;20928;-43
2022/10/04 07:42:23;;;;;;;6.80;4.80;;;14.20;97.50;;;;;;5089152;28;20747;-44
2022/10/04 07:45:09;;;;;;;4.63;4.20;;;14.10;97.10;;;;;;5091206;28;20430;-44
2022/10/04 07:47:35;;;;;;;6.67;5.07;;;14.10;96.60;;;;;;5093100;28;20421;-44
2022/10/04 07:50:21;;;;;;;6.70;6.07;;;14.20;96.40;;;;;;5095009;28;20716;-44
2022/10/04 07:52:56;;;;;;;11.60;6.10;;;14.30;96.00;;;;;;5095479;28;20173;-45
2022/10/04 07:55:40;;;;;;;7.50;5.60;;;14.40;95.50;;;;;;5095897;28;20417;-43
2022/10/04 07:58:23;;;;;;;5.63;4.57;;;14.50;95.30;;;;;;5095670;28;20939;-43
2022/10/04 08:00:54;;;;;;;5.43;4.90;;;14.60;95.10;;;;;;5078055;28;20500;-44
2022/10/04 08:03:38;;;;;;;5.97;5.10;;;14.70;95.00;;;;;;5095123;28;20426;-49
2022/10/04 08:06:26;;;;;;;7.47;5.40;;;14.80;94.70;;;;;;5094288;28;20465;-42
2022/10/04 08:08:55;;;;;;;6.30;5.70;;;15.00;94.50;;;;;;5092809;28;20416;-47
2022/10/04 08:11:57;;;;;;;8.05;5.90;;;15.10;94.30;;;;;;5092506;28;20427;-46
2022/10/04 08:14:58;;;;;;;7.60;5.37;;;15.30;94.20;;;;;;5093650;28;20215;-48
2022/10/04 08:17:27;;;;;;;6.13;5.53;;;15.80;93.60;;;;;;5095272;28;20580;-45
2022/10/04 08:20:02;;;;;;;5.50;5.00;;;16.10;93.00;;;;;;5095098;28;20463;-48
2022/10/04 08:22:48;;;;;;;7.13;5.33;;;16.60;92.60;;;;;;5094189;28;20423;-44
2022/10/04 08:25:27;;;;;;;7.30;6.60;;;17.10;91.80;;;;;;5094107;28;20431;-46
2022/10/04 08:31:24;;;;;;;5.90;5.00;;;17.90;90.20;;;;;;5093475;28;20407;-47
2022/10/04 08:34:20;;;;;;;5.10;4.70;;;18.40;88.90;;;;;;5092337;28;20433;-44
2022/10/04 08:37:01;;;;;;;7.23;5.00;;;18.80;87.90;;;;;;5091315;28;20456;-45
2022/10/04 08:39:35;;;;;;;6.20;4.30;;;19.20;86.40;;;;;;5091252;28;20474;-45
2022/10/04 08:42:25;;;;;;;5.03;4.57;;;19.70;84.80;;;;;;5093203;28;20500;-47
2022/10/04 08:44:55;;;;;;;4.50;4.03;;;20.20;83.50;;;;;;5093553;28;20669;-47
2022/10/04 08:47:24;;;;;;;5.53;4.13;;;20.70;81.60;;;;;;5093544;28;20420;-44
2022/10/04 08:50:11;;;;;;;5.73;4.73;;;21.20;79.50;;;;;;5095388;28;20438;-43
2022/10/04 08:53:05;;;;;;;4.53;4.10;;;21.80;76.60;;;;;;5093421;28;20421;-46
2022/10/04 08:56:09;;;;;;;5.30;3.50;;;22.70;73.70;;;;;;5092937;28;20452;-45
2022/10/04 08:59:10;;;;;;;6.83;3.87;;;24.00;71.00;;;;;;5091589;28;20510;-43
2022/10/04 09:01:57;;;;;;;5.03;4.40;;;25.10;66.40;;;;;;5094170;28;20417;-45
2022/10/04 09:04:37;;;;;;;4.10;3.70;;;25.90;60.90;;;;;;5089856;28;20433;-44
2022/10/04 09:07:22;;;;;;;4.60;3.20;;;26.40;58.00;;;;;;5092313;28;20828;-45
2022/10/04 09:10:07;;;;;;;5.10;3.20;;;27.40;56.60;;;;;;5094075;28;20458;-47
2022/10/04 09:13:02;;;;;;;5.33;3.77;;;28.60;54.10;;;;;;5092901;28;20414;-43
2022/10/04 09:15:32;;;;;;;3.40;2.97;;;29.80;51.10;;;;;;5090045;28;21057;-43
2022/10/04 09:18:31;;;;;;;4.53;3.50;;;30.60;48.40;;;;;;5087775;28;20811;-44
2022/10/04 09:21:09;;;;;;;5.50;2.93;;;31.20;46.50;;;;;;5080792;28;20431;-44
2022/10/04 09:23:58;;;;;;;3.23;2.93;;;31.90;44.60;;;;;;5093945;28;20716;-43
2022/10/04 09:26:58;;;;;;;2.80;2.60;;;32.60;43.10;;;;;;5091537;28;20423;-42
2022/10/04 09:29:36;;;;;;;5.10;2.93;;;33.40;41.90;;;;;;5091890;28;20442;-46
2022/10/04 09:32:31;;;;;;;3.07;2.77;;;34.10;40.90;;;;;;5092269;28;20680;-45
2022/10/04 09:35:17;;;;;;;3.70;2.67;;;34.40;39.80;;;;;;5091735;28;20390;-43
2022/10/04 09:38:04;;;;;;;2.80;2.60;;;34.50;38.90;;;;;;5090407;28;20400;-45
2022/10/04 09:40:45;;;;;;;4.23;3.07;;;34.20;39.00;;;;;;5090124;28;20793;-45
2022/10/04 09:43:16;;;;;;;3.67;3.00;;;33.80;38.40;;;;;;5089226;28;20840;-45
2022/10/04 09:46:17;;;;;;;5.40;3.20;;;33.40;38.50;;;;;;5089897;28;20432;-44
2022/10/04 09:48:52;;;;;;;4.40;3.30;;;32.80;38.60;;;;;;5091108;28;20415;-45
2022/10/04 09:52:01;;;;;;;3.60;2.63;;;32.50;39.20;;;;;;5091944;28;20393;-46
2022/10/04 09:54:50;;;;;;;4.03;3.00;;;32.20;39.50;;;;;;5071027;28;20416;-46
2022/10/04 09:57:16;;;;;;;3.90;3.03;;;32.20;39.50;;;;;;5090810;28;20464;-44
2022/10/04 09:59:52;;;;;;;4.70;2.83;;;32.30;39.30;;;;;;5078603;28;20435;-45
2022/10/04 10:02:33;;;;;;;3.93;3.17;;;32.70;39.20;;;;;;5078259;28;20184;-44
2022/10/04 10:05:20;;;;;;;4.17;3.37;;;33.10;38.90;;;;;;5078454;28;20409;-45
2022/10/04 10:08:17;;;;;;;3.30;3.00;;;33.40;38.00;;;;;;5096353;28;20913;-47
2022/10/04 10:14:36;;;;;;;3.60;2.80;;;33.60;37.30;;;;;;5095802;28;20737;-46
2022/10/04 10:17:16;;;;;;;3.73;2.90;;;34.10;37.40;;;;;;5098232;28;20438;-43
2022/10/04 10:20:09;;;;;;;3.63;2.90;;;34.50;36.90;;;;;;5078397;28;20474;-46
2022/10/04 10:22:55;;;;;;;3.20;2.80;;;35.20;36.40;;;;;;5095538;28;20807;-46
2022/10/04 10:25:46;;;;;;;5.30;2.70;;;36.10;35.90;;;;;;5094506;28;20423;-46
2022/10/04 10:28:33;;;;;;;3.47;2.70;;;37.50;34.70;;;;;;5096311;28;20434;-42
2022/10/04 10:31:18;;;;;;;2.90;2.70;;;38.80;33.50;;;;;;5097160;28;20862;-43
2022/10/04 10:34:07;;;;;;;3.67;2.57;;;39.90;32.50;;;;;;5095763;28;20889;-45
2022/10/04 10:36:38;;;;;;;2.63;2.43;;;40.80;31.10;;;;;;5073649;28;20412;-42
2022/10/04 10:39:41;;;;;;;3.50;2.80;;;41.90;30.50;;;;;;5074933;28;20845;-44
2022/10/04 10:42:35;;;;;;;2.90;2.70;;;42.50;29.80;;;;;;5074481;28;20596;-46
2022/10/04 10:45:17;;;;;;;2.50;2.17;;;43.20;29.20;;;;;;5073380;28;20490;-43
2022/10/04 10:47:55;;;;;;;3.13;2.30;;;43.70;29.10;;;;;;5074285;28;20829;-43
2022/10/04 10:50:24;;;;;;;3.17;2.67;;;44.00;28.70;;;;;;5076404;28;20931;-45
2022/10/04 10:53:30;;;;;;;3.00;2.70;;;44.50;28.80;;;;;;5075806;28;20855;-44
2022/10/04 10:56:34;;;;;;;2.40;2.10;;;44.60;27.80;;;;;;5073501;28;20461;-43
2022/10/04 10:59:15;;;;;;;2.63;2.20;;;45.00;28.00;;;;;;5072898;28;20440;-45
2022/10/04 11:01:52;;;;;;;2.80;2.47;;;45.20;27.70;;;;;;5074015;28;20426;-44
2022/10/04 11:04:53;;;;;;;2.50;2.30;;;45.40;27.60;;;;;;5074805;28;20417;-45
2022/10/04 11:07:40;;;;;;;2.80;2.23;;;46.20;27.30;;;;;;5072866;28;20484;-45
2022/10/04 11:10:53;;;;;;;2.30;2.10;;;47.00;27.00;;;;;;5076180;28;20492;-44
2022/10/04 11:13:40;;;;;;;2.30;2.00;;;47.10;26.60;;;;;;5076080;28;20424;-45
2022/10/04 11:16:33;;;;;;;2.50;2.30;;;46.80;26.50;;;;;;5076188;28;20422;-45
2022/10/04 11:19:07;;;;;;;2.50;2.30;;;45.80;27.10;;;;;;5071301;28;20746;-44
2022/10/04 11:21:51;;;;;;;2.40;2.20;;;45.00;27.10;;;;;;5077314;28;20412;-49
2022/10/04 11:24:43;;;;;;;2.90;2.60;;;44.20;27.20;;;;;;5093331;28;20448;-43
2022/10/04 11:27:27;;;;;;;4.23;2.50;;;43.70;27.60;;;;;;5095312;28;20459;-47
2022/10/04 11:30:07;;;;;;;2.70;2.50;;;43.50;27.80;;;;;;5094265;28;20465;-42
2022/10/04 11:33:08;;;;;;;2.63;2.10;;;44.00;27.70;;;;;;5092159;28;20464;-46
2022/10/04 11:36:12;;;;;;;2.10;1.90;;;44.70;27.50;;;;;;5091405;28;20421;-43
2022/10/04 11:38:50;;;;;;;5.60;2.33;;;44.80;27.10;;;;;;5032939;28;20435;-45
2022/10/04 11:41:33;;;;;;;3.20;2.30;;;44.70;27.20;;;;;;5048906;28;20432;-45
2022/10/04 11:44:17;;;;;;;2.67;2.30;;;44.40;27.60;;;;;;5076846;28;20973;-46
2022/10/04 11:46:59;;;;;;;3.33;2.60;;;44.30;27.60;;;;;;5089893;28;20523;-44
2022/10/04 11:49:42;;;;;;;3.20;2.27;;;43.90;27.60;;;;;;5089429;28;20482;-46
2022/10/04 11:52:19;;;;;;;2.90;2.20;;;43.70;27.60;;;;;;5093885;28;20442;-45
2022/10/04 11:55:19;;;;;;;3.20;2.43;;;43.90;27.60;;;;;;5093848;28;20420;-47
2022/10/04 11:57:52;;;;;;;3.37;2.10;;;44.00;27.20;;;;;;5094774;28;20427;-46
2022/10/04 12:00:20;;;;;;;3.00;2.67;;;43.90;27.60;;;;;;5075233;28;20417;-45
2022/10/04 12:02:58;;;;;;;2.70;1.93;;;44.30;27.70;;;;;;5092711;28;20503;-45
2022/10/04 12:05:51;;;;;;;2.10;1.90;;;44.70;27.30;;;;;;5093989;28;20410;-44
2022/10/04 12:08:41;;;;;;;3.07;2.00;;;44.80;27.20;;;;;;5092250;28;20437;-46
2022/10/04 12:11:07;;;;;;;2.27;2.07;;;44.60;27.50;;;;;;5093087;28;20416;-47
2022/10/04 12:13:33;;;;;;;2.10;1.90;;;44.40;27.30;;;;;;5091410;28;20545;-45
2022/10/04 12:16:16;;;;;;;2.33;2.13;;;44.30;27.30;;;;;;5090299;28;20207;-48
2022/10/04 12:19:20;;;;;;;14.73;2.37;;;44.70;27.20;;;;;;5091364;28;20428;-45
2022/10/04 12:21:53;;;;;;;1.93;1.77;;;44.60;27.40;;;;;;5090338;28;20548;-45
2022/10/04 12:24:32;;;;;;;2.27;2.07;;;43.80;27.40;;;;;;5094393;28;20523;-47
2022/10/04 12:27:31;;;;;;;2.77;1.90;;;43.80;27.60;;;;;;5091334;28;20429;-46
2022/10/04 12:30:09;;;;;;;2.40;2.20;;;44.50;27.20;;;;;;5093829;28;20512;-45
2022/10/04 12:33:06;;;;;;;2.67;2.23;;;45.40;26.70;;;;;;5094260;28;20426;-48
2022/10/04 12:35:51;;;;;;;2.53;2.33;;;46.10;26.30;;;;;;5090538;28;20478;-45
2022/10/04 12:38:20;;;;;;;2.43;2.23;;;46.30;26.60;;;;;;5091729;28;20452;-46
2022/10/04 12:40:58;;;;;;;2.20;2.00;;;46.20;25.90;;;;;;5091937;28;20435;-47
2022/10/04 12:43:33;;;;;;;2.10;1.90;;;45.80;26.30;;;;;;5091702;28;20474;-45
2022/10/04 12:46:19;;;;;;;2.13;1.93;;;45.40;26.50;;;;;;5093602;28;20509;-45
2022/10/04 12:49:03;;;;;;;2.10;1.70;;;44.70;27.00;;;;;;5095287;28;20489;-49
2022/10/04 12:51:49;;;;;;;2.10;1.90;;;44.30;27.20;;;;;;5094020;28;20435;-48
2022/10/04 12:54:46;;;;;;;2.63;2.10;;;44.30;27.20;;;;;;5092417;28;20439;-45
2022/10/04 12:57:36;;;;;;;1.97;1.80;;;44.80;27.10;;;;;;5074764;28;20481;-45
2022/10/04 13:00:13;;;;;;;2.10;1.90;;;45.50;26.60;;;;;;5074376;28;20872;-49
2022/10/04 13:02:47;;;;;;;2.60;2.00;;;46.10;26.50;;;;;;5071422;28;20429;-47
2022/10/04 13:05:21;;;;;;;2.00;1.80;;;46.70;26.30;;;;;;5074257;28;20908;-46
2022/10/04 13:07:53;;;;;;;2.27;2.07;;;47.20;26.00;;;;;;5072727;28;20722;-46
2022/10/04 13:10:54;;;;;;;2.10;1.90;;;47.40;25.90;;;;;;5071732;28;20517;-46
2022/10/04 13:13:29;;;;;;;2.17;1.97;;;47.60;25.90;;;;;;5072940;28;20474;-48
2022/10/04 13:15:58;;;;;;;2.03;1.77;;;47.70;25.70;;;;;;5090860;28;20425;-46
2022/10/04 13:18:33;;;;;;;2.43;1.90;;;47.60;25.70;;;;;;5091454;28;20419;-45
2022/10/04 13:21:10;;;;;;;1.90;1.70;;;47.50;25.80;;;;;;5092248;28;20431;-47
2022/10/04 13:24:27;;;;;;;1.80;1.67;;;47.30;25.70;;;;;;5088590;28;20466;-46
2022/10/04 13:27:03;;;;;;;1.80;1.70;;;47.40;25.50;;;;;;5074178;28;20432;-45
2022/10/04 13:29:44;;;;;;;1.90;1.63;;;47.60;25.30;;;;;;5091704;28;20513;-47
2022/10/04 13:32:26;;;;;;;1.60;1.50;;;47.50;25.50;;;;;;5092051;28;20708;-45
2022/10/04 13:35:11;;;;;;;1.90;1.70;;;47.80;25.10;;;;;;5089123;28;20428;-47
2022/10/04 13:37:57;;;;;;;1.70;1.60;;;48.10;25.20;;;;;;5090770;28;20434;-46
2022/10/04 13:40:41;;;;;;;1.97;1.57;;;48.10;25.10;;;;;;5089525;28;20628;-46
2022/10/04 13:43:15;;;;;;;1.70;1.60;;;48.20;25.20;;;;;;5088253;28;20450;-47
2022/10/04 13:45:59;;;;;;;2.23;1.70;;;48.40;25.10;;;;;;5087682;28;20447;-45
2022/10/04 13:49:06;;;;;;;1.50;1.40;;;48.30;25.10;;;;;;5084071;28;20865;-45
2022/10/04 13:57:59;;;;;;;1.50;1.33;;;48.10;25.00;;;;;;5086434;28;20422;-49
2022/10/04 14:00:57;;;;;;;1.80;1.70;;;48.20;25.10;;;;;;5088428;28;20736;-48
2022/10/04 14:03:43;;;;;;;1.50;1.40;;;48.20;25.30;;;;;;5086910;28;20505;-46
2022/10/04 14:06:29;;;;;;;1.70;1.60;;;48.10;25.00;;;;;;5087348;28;20507;-48